• Join FlightAware (Why Join?)
  • Login
  • US Flag 
05:44AM EST


 

Airport Tracker/Info


-or-


 

Live Flight TrackerFlight Track Log ✈ WJA173 ✈ 04-Sep-2014 ✈ CYEG - CYVR

Flight Track Log - Related Links

Times and Time Zones

All times are in EDT time to prevent confusion due to time zone crossing. See the WJA173 flight status page for this flight to view local times or setup timezone preferences in your user account.

Time Position Orientation Groundspeed Altitude Reporting Facility
EDT Latitude Longitude Course Direction KTS MPH feet Rate Location/Type
08:59AM 53.2500 -113.5667 236° Southwest 180 207 3,600  Level Edmonton Center
09:00AM 53.2000 -113.4833 135° Southeast 220 253 5,800 1,950 Climbing Edmonton Center
09:01AM 53.1500 -113.5167 202° Southwest 260 299 7,500 2,500 Climbing Edmonton Center
09:02AM 53.1333 -113.6667 260° West 270 311 10,800 2,800 Climbing Edmonton Center
09:03AM 53.0597 -114.1799 239° Southwest  Level FlightAware Approximate
09:03AM 53.1333 -113.8000 270° West 320 368 13,100  Level Edmonton Center
09:04AM 53.0020 -114.3367 236° Southwest  Level FlightAware Approximate
09:04AM 53.0833 -113.9333 238° Southwest 340 391 16,200  Level Edmonton Center
09:05AM 52.9403 -114.4891 236° Southwest  Level FlightAware Approximate
09:05AM 53.0500 -114.1000 252° West 360 414 19,300  Level Edmonton Center
09:06AM 53.0000 -114.2500 241° Southwest 370 426 22,200 2,700 Climbing Edmonton Center
09:07AM 52.9667 -114.4167 252° West 380 437 24,700 2,250 Climbing Edmonton Center
09:08AM 52.9000 -114.5667 234° Southwest 400 460 26,700 2,000 Climbing Edmonton Center
09:09AM 52.8333 -114.7333 237° Southwest 420 483 28,700 1,850 Climbing Edmonton Center
09:10AM 52.7667 -114.8833 234° Southwest 430 495 30,400 1,700 Climbing Edmonton Center
09:11AM 52.7000 -115.0667 239° Southwest 440 506 32,100 1,850 Climbing Edmonton Center
09:12AM 52.6167 -115.2333 231° Southwest 430 495 34,100 1,800 Climbing Edmonton Center
09:13AM 52.5500 -115.3833 234° Southwest 430 495 35,700 1,500 Climbing Edmonton Center
09:14AM 52.4833 -115.5667 239° Southwest 430 495 37,100 1,200 Climbing Edmonton Center
09:15AM 52.4167 -115.7167 234° Southwest 430 495 38,100 1,100 Climbing Edmonton Center
09:16AM 52.3500 -115.9000 239° Southwest 440 506 39,300 950 Climbing Edmonton Center
09:17AM 52.2833 -116.0500 234° Southwest 440 506 40,000 350 Climbing Edmonton Center
09:18AM 52.2000 -116.1833 224° Southwest 440 506 40,000  Level Edmonton Center
09:19AM 52.1333 -116.3667 239° Southwest 440 506 40,000  Level Edmonton Center
09:20AM 52.0833 -116.4500 226° Southwest 440 506 40,000  Level Vancouver Center
09:21AM 52.0000 -116.6000 228° Southwest 440 506 40,000  Level Vancouver Center
09:22AM 51.9500 -116.7667 244° Southwest 440 506 40,000  Level Vancouver Center
09:23AM 51.8833 -116.9167 234° Southwest 440 506 40,000  Level Vancouver Center
09:24AM 51.8000 -117.1000 234° Southwest 440 506 40,000  Level Vancouver Center
09:25AM 51.7333 -117.2667 237° Southwest 440 506 40,000  Level Vancouver Center
09:26AM 51.6500 -117.4167 228° Southwest 440 506 40,000  Level Vancouver Center
09:27AM 51.5833 -117.5833 237° Southwest 440 506 40,000  Level Vancouver Center
09:28AM 51.5167 -117.7333 235° Southwest 430 495 40,000  Level Vancouver Center
09:29AM 51.4500 -117.8667 231° Southwest 430 495 40,000  Level Vancouver Center
09:30AM 51.3667 -118.0500 234° Southwest 430 495 40,000  Level Vancouver Center
09:31AM 51.3000 -118.1833 231° Southwest 430 495 40,000  Level Vancouver Center
09:32AM 51.2333 -118.3500 237° Southwest 430 495 40,000  Level Vancouver Center
09:33AM 51.1500 -118.5000 229° Southwest 440 506 40,000  Level Vancouver Center
09:34AM 51.0833 -118.6667 238° Southwest 440 506 40,000  Level Vancouver Center
09:35AM 51.0000 -118.8000 225° Southwest 440 506 40,000  Level Vancouver Center
09:36AM 50.9167 -118.9833 234° Southwest 440 506 40,000  Level Vancouver Center
09:37AM 50.8500 -119.1167 232° Southwest 440 506 40,000  Level Vancouver Center
09:38AM 50.7833 -119.2500 232° Southwest 440 506 40,000  Level Vancouver Center
09:39AM 50.7000 -119.4167 232° Southwest 430 495 40,000  Level Vancouver Center
09:40AM 50.6333 -119.5833 238° Southwest 450 518 40,000  Level Vancouver Center
09:41AM 50.5500 -119.7167 225° Southwest 440 506 40,000  Level Vancouver Center
09:42AM 50.4667 -119.8833 232° Southwest 440 506 40,000  Level Vancouver Center
09:43AM 50.4000 -120.0333 235° Southwest 440 506 40,000  Level Vancouver Center
09:44AM 50.3167 -120.1833 229° Southwest 440 506 40,000 -550 Level Vancouver Center
09:45AM 50.2500 -120.3333 235° Southwest 440 506 38,900 -1,850 Descending Vancouver Center
09:46AM 50.1833 -120.4833 235° Southwest 440 506 36,300 -2,350 Descending Vancouver Center
09:47AM 50.1000 -120.6167 226° Southwest 440 506 34,200 -2,050 Descending Vancouver Center
09:48AM 50.0167 -120.7667 229° Southwest 430 495 32,200 -2,050 Descending Vancouver Center
09:49AM 49.9500 -120.9167 235° Southwest 420 483 30,100 -2,050 Descending Vancouver Center
09:50AM 49.8833 -121.0500 232° Southwest 410 472 28,100 -2,000 Descending Vancouver Center
09:51AM 49.8333 -121.2167 245° Southwest 390 449 26,100 -1,950 Descending Vancouver Center
09:52AM 49.7833 -121.3500 240° Southwest 380 437 24,200 -1,850 Descending Vancouver Center
09:53AM 49.7333 -121.4667 236° Southwest 370 426 22,400 -1,850 Descending Vancouver Center
09:54AM 49.6667 -121.6000 232° Southwest 360 414 20,500 -1,750 Descending Vancouver Center
09:55AM 49.6167 -121.7333 240° Southwest 350 403 18,900 -1,600 Descending Vancouver Center
09:56AM 49.5667 -121.8667 240° Southwest 340 391 17,300 -1,600 Descending Vancouver Center
09:57AM 49.5167 -121.9667 232° Southwest 330 380 15,700 -1,600 Descending Vancouver Center
09:58AM 49.5000 -122.0833 258° West 320 368 14,100 -1,700 Descending Vancouver Center
09:59AM 49.4500 -122.2000 237° Southwest 310 357 12,300 -1,950 Descending Vancouver Center
10:00AM 49.4000 -122.3167 237° Southwest 320 368 10,200 -1,450 Descending Vancouver Center
10:01AM 49.3500 -122.4167 233° Southwest 300 345 9,400 -900 Descending Vancouver Center
10:02AM 49.3000 -122.5000 227° Southwest 280 322 8,400 -1,050 Descending Vancouver Center
10:03AM 49.2500 -122.6000 233° Southwest 270 311 7,300 -750 Descending Vancouver Center
10:04AM 49.2000 -122.6833 227° Southwest 250 288 6,900 -850 Descending Vancouver Center
10:05AM 49.1667 -122.7500 233° Southwest 220 253 5,600 -1,450 Descending Vancouver Center
10:06AM 49.1500 -122.8500 256° West 230 265 4,000 -1,400 Descending Vancouver Center
10:07AM 49.1500 -122.9333 270° West 240 276 2,800 -1,150 Descending Vancouver Center
10:08AM 49.1667 -123.0333 284° West 210 242 1,700 -1,000 Descending Vancouver Center
10:09AM 49.1667 -123.0833 270° West 160 184 800 -750 Descending Vancouver Center
10:10AM 49.1833 -123.1333 297° West 140 161 200 -600 Descending Vancouver Center